createdAt,value
2022-11-23T00:03:22.998Z,95014.00
2022-11-23T00:07:26.158Z,95024.00
2022-11-23T00:15:59.752Z,95015.00
2022-11-23T00:20:04.397Z,95013.00
2022-11-23T00:24:07.618Z,95010.00
2022-11-23T00:28:10.655Z,95018.00
2022-11-23T00:32:13.648Z,95014.00
2022-11-23T00:36:18.741Z,95007.00
2022-11-23T00:40:21.785Z,95015.00
2022-11-23T00:44:24.823Z,95015.00
2022-11-23T00:48:27.910Z,95015.00
2022-11-23T00:52:32.378Z,95017.00
2022-11-23T00:56:40.757Z,95026.00
2022-11-23T01:00:43.910Z,95017.00
2022-11-23T01:04:46.930Z,95016.00
2022-11-23T01:08:52.507Z,95014.00
2022-11-23T01:12:55.522Z,95019.00
2022-11-23T01:16:58.872Z,95019.00
2022-11-23T01:21:36.189Z,95022.00
2022-11-23T01:25:40.724Z,95017.00
2022-11-23T01:29:43.757Z,95018.00
2022-11-23T01:34:20.914Z,95023.00
2022-11-23T01:38:23.938Z,95022.00
2022-11-23T01:42:41.414Z,95030.00
2022-11-23T01:46:44.532Z,95026.00
2022-11-23T01:50:49.926Z,95035.00
2022-11-23T01:54:55.886Z,95031.00
2022-11-23T01:59:03.878Z,95038.00
2022-11-23T02:03:08.382Z,95039.00
2022-11-23T02:07:12.155Z,95043.00
2022-11-23T02:11:16.485Z,95056.00
2022-11-23T02:15:20.913Z,95059.00
2022-11-23T02:19:34.885Z,95056.00
2022-11-23T02:24:02.679Z,95062.00
2022-11-23T02:28:08.486Z,95053.00
2022-11-23T02:32:11.581Z,95056.00
2022-11-23T02:36:40.162Z,95051.00
2022-11-23T02:40:43.291Z,95058.00
2022-11-23T02:44:52.768Z,95054.00
2022-11-23T02:48:55.771Z,95052.00
2022-11-23T02:52:58.979Z,95046.00
2022-11-23T02:57:02.051Z,95048.00
2022-11-23T03:01:06.595Z,95037.00
2022-11-23T03:05:43.778Z,95035.00
2022-11-23T03:09:46.846Z,95048.00
2022-11-23T03:13:49.892Z,95054.00
2022-11-23T03:18:28.140Z,95044.00
2022-11-23T03:22:31.241Z,95059.00
2022-11-23T03:27:08.650Z,95060.00
2022-11-23T03:31:12.043Z,95061.00
2022-11-23T03:35:16.937Z,95054.00
2022-11-23T03:39:50.791Z,95069.00
2022-11-23T03:43:54.482Z,95063.00
2022-11-23T03:48:28.139Z,95059.00
2022-11-23T03:52:32.677Z,95052.00
2022-11-23T03:56:35.788Z,95049.00
2022-11-23T04:00:38.956Z,95049.00
2022-11-23T04:05:15.578Z,95047.00
2022-11-23T04:09:54.027Z,95046.00
2022-11-23T04:13:57.035Z,95052.00
2022-11-23T04:18:34.009Z,95057.00
2022-11-23T04:22:37.120Z,95063.00
2022-11-23T04:26:41.849Z,95049.00
2022-11-23T04:30:45.084Z,95046.00
2022-11-23T04:35:19.806Z,95051.00
2022-11-23T04:39:22.901Z,95051.00
2022-11-23T04:43:27.375Z,95057.00
2022-11-23T04:48:01.720Z,95041.00
2022-11-23T04:52:05.432Z,95046.00
2022-11-23T04:56:11.143Z,95053.00
2022-11-23T05:00:19.655Z,95053.00
2022-11-23T05:04:22.793Z,95049.00
2022-11-23T05:08:25.818Z,95056.00
2022-11-23T05:12:28.956Z,95051.00
2022-11-23T05:17:05.857Z,95044.00
2022-11-23T05:21:10.309Z,95043.00
2022-11-23T05:25:13.358Z,95049.00
2022-11-23T05:29:16.392Z,95043.00
2022-11-23T05:33:53.241Z,95041.00
2022-11-23T05:37:57.689Z,95043.00
2022-11-23T05:42:00.902Z,95041.00
2022-11-23T05:46:37.715Z,95039.00
2022-11-23T05:50:40.755Z,95042.00
2022-11-23T05:54:45.246Z,95041.00
2022-11-23T05:58:48.267Z,95038.00
2022-11-23T06:03:25.220Z,95041.00
2022-11-23T06:07:28.383Z,95039.00
2022-11-23T06:11:32.891Z,95037.00
2022-11-23T06:15:36.245Z,95049.00
2022-11-23T06:20:13.513Z,95043.00
2022-11-23T06:24:16.552Z,95042.00
2022-11-23T06:28:21.232Z,95048.00
2022-11-23T06:32:24.334Z,95050.00
2022-11-23T06:37:01.022Z,95063.00
2022-11-23T06:41:04.911Z,95058.00
2022-11-23T06:45:43.240Z,95071.00
2022-11-23T06:50:17.275Z,95070.00
2022-11-23T06:54:23.330Z,95070.00
2022-11-23T06:58:58.196Z,95085.00
2022-11-23T07:03:02.939Z,95071.00
2022-11-23T07:07:06.094Z,95070.00
2022-11-23T07:11:09.445Z,95072.00
2022-11-23T07:15:13.764Z,95083.00
2022-11-23T07:19:49.299Z,95082.00
2022-11-23T07:23:52.356Z,95091.00
2022-11-23T07:28:29.477Z,95096.00
2022-11-23T07:32:32.531Z,95110.00
2022-11-23T07:37:10.690Z,95103.00
2022-11-23T07:41:13.712Z,95104.00
2022-11-23T07:45:17.171Z,95112.00
2022-11-23T07:49:22.196Z,95121.00
2022-11-23T07:53:27.349Z,95122.00
2022-11-23T07:57:30.419Z,95121.00
2022-11-23T08:01:33.542Z,95118.00
2022-11-23T08:05:36.895Z,95128.00
2022-11-23T08:09:41.945Z,95129.00
2022-11-23T08:13:45.593Z,95122.00
2022-11-23T08:18:22.717Z,95122.00
2022-11-23T08:22:27.054Z,95130.00
2022-11-23T08:27:02.872Z,95129.00
2022-11-23T08:31:07.994Z,95131.00
2022-11-23T08:35:42.869Z,95132.00
2022-11-23T08:39:46.082Z,95131.00
2022-11-23T08:43:50.772Z,95129.00
2022-11-23T08:47:54.293Z,95131.00
2022-11-23T08:51:57.473Z,95133.00
2022-11-23T08:56:02.266Z,95147.00
2022-11-23T09:00:08.330Z,95144.00
2022-11-23T09:04:42.143Z,95141.00
2022-11-23T09:08:45.189Z,95143.00
2022-11-23T09:13:22.321Z,95149.00
2022-11-23T09:17:26.785Z,95139.00
2022-11-23T09:21:33.503Z,95152.00
2022-11-23T09:26:03.888Z,95144.00
2022-11-23T09:30:40.930Z,95150.00
2022-11-23T09:34:46.049Z,95146.00
2022-11-23T09:38:56.734Z,95137.00
2022-11-23T09:43:17.331Z,95133.00
2022-11-23T09:47:36.497Z,95131.00
2022-11-23T09:51:43.331Z,95132.00
2022-11-23T09:56:14.001Z,95137.00
2022-11-23T10:00:21.410Z,95135.00
2022-11-23T10:04:25.736Z,95132.00
2022-11-23T10:08:59.461Z,95133.00
2022-11-23T10:13:20.176Z,95135.00
2022-11-23T10:17:32.730Z,95130.00
2022-11-23T10:22:05.332Z,95124.00
2022-11-23T10:26:13.409Z,95117.00
2022-11-23T10:30:20.591Z,95118.00
2022-11-23T10:34:58.162Z,95121.00
2022-11-23T10:39:03.072Z,95114.00
2022-11-23T10:43:39.457Z,95112.00
2022-11-23T10:48:33.966Z,95112.00
2022-11-23T10:52:37.691Z,95118.00
2022-11-23T10:57:22.684Z,95110.00
2022-11-23T11:01:27.629Z,95106.00
2022-11-23T11:06:09.085Z,95103.00
2022-11-23T11:10:39.164Z,95100.00
2022-11-23T11:15:12.042Z,95097.00
2022-11-23T11:19:29.315Z,95087.00
2022-11-23T11:24:00.154Z,95087.00
2022-11-23T11:28:07.657Z,95096.00
2022-11-23T11:32:38.438Z,95096.00
2022-11-23T11:36:47.629Z,95082.00
2022-11-23T11:41:24.882Z,95087.00
2022-11-23T11:45:34.226Z,95087.00
2022-11-23T11:50:03.868Z,95089.00
2022-11-23T11:54:14.910Z,95090.00
2022-11-23T11:58:18.569Z,95082.00
2022-11-23T12:03:00.921Z,95077.00
2022-11-23T12:07:09.681Z,95078.00
2022-11-23T12:11:14.871Z,95070.00
2022-11-23T12:15:51.942Z,95076.00
2022-11-23T12:20:06.797Z,95073.00
2022-11-23T12:24:38.146Z,95066.00
2022-11-23T12:29:08.972Z,95072.00
2022-11-23T12:33:32.742Z,95069.00
2022-11-23T12:38:07.398Z,95069.00
2022-11-23T12:42:18.003Z,95075.00
2022-11-23T12:46:48.156Z,95065.00
2022-11-23T12:51:01.278Z,95058.00
2022-11-23T12:55:19.893Z,95044.00
2022-11-23T12:59:26.306Z,95044.00
2022-11-23T13:04:01.678Z,95044.00
2022-11-23T13:08:21.106Z,95051.00
2022-11-23T13:12:42.477Z,95050.00
2022-11-23T13:17:14.857Z,95045.00
2022-11-23T13:21:29.332Z,95054.00
2022-11-23T13:25:32.474Z,95049.00
2022-11-23T13:30:11.743Z,95052.00
2022-11-23T13:34:45.749Z,95056.00
2022-11-23T13:38:48.751Z,95065.00
2022-11-23T13:42:53.055Z,95055.00
2022-11-23T13:47:04.566Z,95053.00
2022-11-23T13:51:07.707Z,95046.00
2022-11-23T13:55:44.353Z,95044.00
2022-11-23T13:59:47.486Z,95044.00
2022-11-23T14:03:57.135Z,95045.00
2022-11-23T14:08:03.334Z,95045.00
2022-11-23T14:12:21.893Z,95037.00
2022-11-23T14:16:45.308Z,95042.00
2022-11-23T14:21:16.571Z,95036.00
2022-11-23T14:25:39.491Z,95042.00
2022-11-23T14:30:07.979Z,95043.00
2022-11-23T14:34:20.365Z,95045.00
2022-11-23T14:38:52.324Z,95045.00
2022-11-23T14:43:04.929Z,95042.00
2022-11-23T14:47:09.537Z,95038.00
2022-11-23T14:51:44.820Z,95043.00
2022-11-23T14:55:50.945Z,95041.00
2022-11-23T14:59:56.294Z,95040.00
2022-11-23T15:04:35.241Z,95035.00
2022-11-23T15:08:46.709Z,95031.00
2022-11-23T15:12:51.235Z,95036.00
2022-11-23T15:17:25.211Z,95039.00
2022-11-23T15:21:29.551Z,95034.00
2022-11-23T15:26:05.339Z,95051.00
2022-11-23T15:30:21.064Z,95054.00
2022-11-23T15:34:46.365Z,95059.00
2022-11-23T15:38:50.364Z,95054.00
2022-11-23T15:43:24.409Z,95057.00
2022-11-23T15:48:01.294Z,95069.00
2022-11-23T15:52:06.094Z,95060.00
2022-11-23T15:56:24.969Z,95062.00
2022-11-23T16:00:28.171Z,95062.00
2022-11-23T16:05:06.405Z,95064.00
2022-11-23T16:09:51.280Z,95075.00
2022-11-23T16:14:12.481Z,95071.00
2022-11-23T16:18:24.925Z,95074.00
2022-11-23T16:22:53.860Z,95076.00
2022-11-23T16:26:58.542Z,95069.00
2022-11-23T16:31:37.693Z,95063.00
2022-11-23T16:36:11.293Z,95058.00
2022-11-23T16:40:49.386Z,95060.00
2022-11-23T16:45:24.490Z,95060.00
2022-11-23T16:49:34.160Z,95051.00
2022-11-23T16:54:07.837Z,95050.00
2022-11-23T16:58:16.309Z,95048.00
2022-11-23T17:02:48.594Z,95056.00
2022-11-23T17:07:22.504Z,95051.00
2022-11-23T17:11:59.469Z,95061.00
2022-11-23T17:16:02.536Z,95055.00
2022-11-23T17:20:11.391Z,95062.00
2022-11-23T17:24:14.937Z,95058.00
2022-11-23T17:28:21.713Z,95058.00
2022-11-23T17:32:25.011Z,95060.00
2022-11-23T17:36:32.044Z,95076.00
2022-11-23T17:40:35.768Z,95068.00
2022-11-23T17:44:38.894Z,95074.00
2022-11-23T17:48:42.087Z,95074.00
2022-11-23T17:52:46.744Z,95078.00
2022-11-23T17:57:23.176Z,95081.00
2022-11-23T18:01:56.749Z,95083.00
2022-11-23T18:06:33.564Z,95089.00
2022-11-23T18:11:12.089Z,95101.00
2022-11-23T18:15:46.299Z,95099.00
2022-11-23T18:20:23.167Z,95106.00
2022-11-23T18:25:00.108Z,95112.00
2022-11-23T18:29:40.284Z,95117.00
2022-11-23T18:34:14.084Z,95115.00
2022-11-23T18:38:50.564Z,95121.00
2022-11-23T18:43:28.810Z,95118.00
2022-11-23T18:48:07.958Z,95127.00
2022-11-23T18:52:41.973Z,95121.00
2022-11-23T18:57:19.223Z,95121.00
2022-11-23T19:01:53.488Z,95125.00
2022-11-23T19:06:30.287Z,95124.00
2022-11-23T19:11:09.176Z,95133.00
2022-11-23T19:15:43.296Z,95147.00
2022-11-23T19:20:23.545Z,95143.00
2022-11-23T19:24:57.518Z,95149.00
2022-11-23T19:29:36.143Z,95151.00
2022-11-23T19:34:10.869Z,95165.00
2022-11-23T19:38:48.238Z,95162.00
2022-11-23T19:43:22.174Z,95174.00
2022-11-23T19:48:01.615Z,95176.00
2022-11-23T19:53:09.912Z,95181.00
2022-11-23T19:57:13.407Z,95195.00
2022-11-23T20:01:47.794Z,95196.00
2022-11-23T20:06:21.963Z,95203.00
2022-11-23T20:11:06.604Z,95210.00
2022-11-23T20:15:34.705Z,95218.00
2022-11-23T20:20:10.644Z,95220.00
2022-11-23T20:24:44.907Z,95222.00
2022-11-23T20:29:23.372Z,95225.00
2022-11-23T20:33:57.207Z,95227.00
2022-11-23T20:38:37.010Z,95231.00
2022-11-23T20:43:11.372Z,95244.00
2022-11-23T20:47:53.840Z,95246.00
2022-11-23T20:52:25.094Z,95259.00
2022-11-23T20:56:29.285Z,95271.00
2022-11-23T21:01:05.729Z,95275.00
2022-11-23T21:05:44.330Z,95272.00
2022-11-23T21:10:38.459Z,95287.00
2022-11-23T21:14:57.141Z,95292.00
2022-11-23T21:19:31.662Z,95296.00
2022-11-23T21:23:36.305Z,95294.00
2022-11-23T21:28:09.949Z,95297.00
2022-11-23T21:32:15.047Z,95300.00
2022-11-23T21:36:49.356Z,95311.00
2022-11-23T21:40:59.227Z,95305.00
2022-11-23T21:45:27.369Z,95307.00
2022-11-23T21:49:30.953Z,95309.00
2022-11-23T21:53:34.782Z,95311.00
2022-11-23T21:58:13.335Z,95312.00
2022-11-23T22:02:16.726Z,95317.00
2022-11-23T22:06:53.830Z,95313.00
2022-11-23T22:10:57.005Z,95306.00
2022-11-23T22:15:01.794Z,95322.00
2022-11-23T22:19:05.831Z,95321.00
2022-11-23T22:23:09.152Z,95330.00
2022-11-23T22:27:12.192Z,95330.00
2022-11-23T22:31:19.035Z,95331.00
2022-11-23T22:35:52.975Z,95336.00
2022-11-23T22:39:56.082Z,95337.00
2022-11-23T22:43:59.831Z,95334.00
2022-11-23T22:48:36.586Z,95330.00
2022-11-23T22:52:41.348Z,95338.00
2022-11-23T22:57:37.040Z,95345.00
2022-11-23T23:01:40.083Z,95350.00
2022-11-23T23:05:43.912Z,95339.00
2022-11-23T23:10:19.459Z,95344.00
2022-11-23T23:14:23.117Z,95363.00
2022-11-23T23:18:26.607Z,95354.00
2022-11-23T23:22:29.942Z,95351.00
2022-11-23T23:26:34.618Z,95346.00
2022-11-23T23:31:09.289Z,95362.00
2022-11-23T23:35:12.588Z,95355.00
2022-11-23T23:39:15.871Z,95357.00
2022-11-23T23:43:49.631Z,95364.00
2022-11-23T23:47:54.282Z,95372.00
2022-11-23T23:51:57.472Z,95372.00
2022-11-23T23:56:02.436Z,95385.00
